Acapulco Jet — IWUM — position and weather

sailwx.info

Track history (hours):
 
Tides and Currents Weather Stations Pressure Air Temp Water Temp Dewpoint Dewpoint Depression Visibility Wind Speed Wind Dir Waves Ship Positions

Acapulco Jet

Last reported at 2014-Jul-23 07:11 UTC. Time now 2014-Jul-23 08:05 UTC.
Position N 42°52' E 010°24'.

Length 35 m; draft 1.2 m.

Type: High speed craft. MMSI: 247050100.

Date/timePositionNaut miles runAvg speedWind from/ knotsBaromVisibWave heightAir tempDewpointWater temp
2014-Jul-23 07:11N 42°52' E 010°24'8 4.8
2014-Jul-23 05:28N 42°56' E 010°33'8 0.7
2014-Jul-22 17:33N 42°52' E 010°24'6 4.8
2014-Jul-22 16:21N 42°54' E 010°31'2 2.0
2014-Jul-22 15:16N 42°56' E 010°33'1217.1
2014-Jul-22 14:33N 42°49' E 010°20'2 1.7
2014-Jul-22 13:33N 42°50' E 010°21'4 0.1
2014-Jul-20 17:33N 42°52' E 010°26'1 0.6
2014-Jul-20 16:34N 42°52' E 010°26'5 1.7
2014-Jul-20 13:33N 42°49' E 010°20'5 2.1
2014-Jul-20 11:26N 42°52' E 010°26'0 0.0
2014-Jul-20 09:33N 42°52' E 010°26'2 1.4
2014-Jul-20 08:05N 42°53' E 010°28'7 8.2
2014-Jul-20 07:16N 42°49' E 010°20'12 6.5
2014-Jul-20 05:28N 42°56' E 010°33'7 0.4
2014-Jul-19 11:34N 42°52' E 010°26'5 4.0
2014-Jul-19 10:12N 42°49' E 010°19'5 8.4
2014-Jul-19 09:34N 42°52' E 010°26'7 5.4
2014-Jul-19 08:16N 42°56' E 010°33'1317.4
2014-Jul-19 07:33N 42°49' E 010°19'12 5.9
2014-Jul-19 05:28N 42°56' E 010°33'7 0.6
2014-Jul-18 17:32N 42°52' E 010°26'1 0.8
2014-Jul-18 16:33N 42°52' E 010°26'6 2.8
2014-Jul-18 14:21N 42°49' E 010°19'2 2.7
2014-Jul-18 13:32N 42°50' E 010°22'4 2.0
2014-Jul-18 11:33N 42°52' E 010°26'1 0.4
2014-Jul-18 09:33N 42°52' E 010°25'7 5.9
2014-Jul-18 08:20N 42°56' E 010°33'1316.1
2014-Jul-18 07:33N 42°49' E 010°19'12 5.9
2014-Jul-18 05:28N 42°56' E 010°33'7 0.6
2014-Jul-17 17:33N 42°52' E 010°25'0 0.2
2014-Jul-17 16:33N 42°52' E 010°26'2 0.5
2014-Jul-17 13:28N 42°52' E 010°23'2 0.8
2014-Jul-17 11:30N 42°52' E 010°25'4 2.0
2014-Jul-17 09:23N 42°54' E 010°30'3 2.6
2014-Jul-17 08:13N 42°56' E 010°34'1314.8
2014-Jul-17 07:22N 42°49' E 010°20'13 6.6
2014-Jul-17 05:28N 42°56' E 010°33'7 0.6
2014-Jul-16 17:32N 42°52' E 010°26'3 0.9
2014-Jul-16 13:32N 42°50' E 010°22'3 1.6
2014-Jul-16 11:33N 42°52' E 010°26'5 5.4
2014-Jul-16 10:33N 42°49' E 010°19'5 5.3
2014-Jul-16 09:34N 42°52' E 010°25'7 5.7
2014-Jul-16 08:18N 42°56' E 010°33'1216.2
2014-Jul-16 07:32N 42°49' E 010°19'7 3.1
2014-Jul-16 05:15N 42°53' E 010°28'2 0.2
2014-Jul-15 17:30N 42°52' E 010°25'0 0.0
2014-Jul-15 16:33N 42°52' E 010°25'7 5.3
2014-Jul-15 15:12N 42°56' E 010°33'1219.3
2014-Jul-15 14:33N 42°49' E 010°20'1 1.5
2014-Jul-15 13:34N 42°50' E 010°21'4 1.9
2014-Jul-15 11:31N 42°52' E 010°25'5 4.4
2014-Jul-15 10:19N 42°49' E 010°19'5 7.1
2014-Jul-15 09:34N 42°52' E 010°26'7 5.5
2014-Jul-15 08:17N 42°56' E 010°33'1110.6
2014-Jul-15 07:17N 42°50' E 010°21'7 3.3
2014-Jul-15 05:18N 42°53' E 010°29'  
Track history (hours):
 
Tides and Currents Weather Stations Pressure Air Temp Water Temp Dewpoint Dewpoint Depression Visibility Wind Speed Wind Dir Waves Ship Positions

Acapulco Jet

Last reported at 2014-Jul-23 07:11 UTC. Time now 2014-Jul-23 08:05 UTC.
Position N 42°52' E 010°24'.

Length 35 m; draft 1.2 m.

Type: High speed craft. MMSI: 247050100.

Date/timePositionNaut miles runAvg speedWind from/ knotsBaromVisibWave heightAir tempDewpointWater temp
2014-Jul-23 07:11N 42°52' E 010°24'8 4.8
2014-Jul-23 05:28N 42°56' E 010°33'8 0.7
2014-Jul-22 17:33N 42°52' E 010°24'6 4.8
2014-Jul-22 16:21N 42°54' E 010°31'2 2.0
2014-Jul-22 15:16N 42°56' E 010°33'1217.1
2014-Jul-22 14:33N 42°49' E 010°20'2 1.7
2014-Jul-22 13:33N 42°50' E 010°21'4 0.1
2014-Jul-20 17:33N 42°52' E 010°26'1 0.6
2014-Jul-20 16:34N 42°52' E 010°26'5 1.7
2014-Jul-20 13:33N 42°49' E 010°20'5 2.1
2014-Jul-20 11:26N 42°52' E 010°26'0 0.0
2014-Jul-20 09:33N 42°52' E 010°26'2 1.4
2014-Jul-20 08:05N 42°53' E 010°28'7 8.2
2014-Jul-20 07:16N 42°49' E 010°20'12 6.5
2014-Jul-20 05:28N 42°56' E 010°33'7 0.4
2014-Jul-19 11:34N 42°52' E 010°26'5 4.0
2014-Jul-19 10:12N 42°49' E 010°19'5 8.4
2014-Jul-19 09:34N 42°52' E 010°26'7 5.4
2014-Jul-19 08:16N 42°56' E 010°33'1317.4
2014-Jul-19 07:33N 42°49' E 010°19'12 5.9
2014-Jul-19 05:28N 42°56' E 010°33'7 0.6
2014-Jul-18 17:32N 42°52' E 010°26'1 0.8
2014-Jul-18 16:33N 42°52' E 010°26'6 2.8
2014-Jul-18 14:21N 42°49' E 010°19'2 2.7
2014-Jul-18 13:32N 42°50' E 010°22'4 2.0
2014-Jul-18 11:33N 42°52' E 010°26'1 0.4
2014-Jul-18 09:33N 42°52' E 010°25'7 5.9
2014-Jul-18 08:20N 42°56' E 010°33'1316.1
2014-Jul-18 07:33N 42°49' E 010°19'12 5.9
2014-Jul-18 05:28N 42°56' E 010°33'7 0.6
2014-Jul-17 17:33N 42°52' E 010°25'0 0.2
2014-Jul-17 16:33N 42°52' E 010°26'2 0.5
2014-Jul-17 13:28N 42°52' E 010°23'2 0.8
2014-Jul-17 11:30N 42°52' E 010°25'4 2.0
2014-Jul-17 09:23N 42°54' E 010°30'3 2.6
2014-Jul-17 08:13N 42°56' E 010°34'1314.8
2014-Jul-17 07:22N 42°49' E 010°20'13 6.6
2014-Jul-17 05:28N 42°56' E 010°33'7 0.6
2014-Jul-16 17:32N 42°52' E 010°26'3 0.9
2014-Jul-16 13:32N 42°50' E 010°22'3 1.6
2014-Jul-16 11:33N 42°52' E 010°26'5 5.4
2014-Jul-16 10:33N 42°49' E 010°19'5 5.3
2014-Jul-16 09:34N 42°52' E 010°25'7 5.7
2014-Jul-16 08:18N 42°56' E 010°33'1216.2
2014-Jul-16 07:32N 42°49' E 010°19'7 3.1
2014-Jul-16 05:15N 42°53' E 010°28'2 0.2
2014-Jul-15 17:30N 42°52' E 010°25'0 0.0
2014-Jul-15 16:33N 42°52' E 010°25'7 5.3
2014-Jul-15 15:12N 42°56' E 010°33'1219.3
2014-Jul-15 14:33N 42°49' E 010°20'1 1.5
2014-Jul-15 13:34N 42°50' E 010°21'4 1.9
2014-Jul-15 11:31N 42°52' E 010°25'5 4.4
2014-Jul-15 10:19N 42°49' E 010°19'5 7.1
2014-Jul-15 09:34N 42°52' E 010°26'7 5.5
2014-Jul-15 08:17N 42°56' E 010°33'1110.6
2014-Jul-15 07:17N 42°50' E 010°21'7 3.3
2014-Jul-15 05:18N 42°53' E 010°29'  

Dump ship's entire track history